createdAt,value
2022-11-21T00:01:25.629Z,7.35
2022-11-21T00:03:53.391Z,7.80
2022-11-21T00:06:22.931Z,7.43
2022-11-21T00:08:50.380Z,6.60
2022-11-21T00:11:17.584Z,6.35
2022-11-21T00:13:44.847Z,4.78
2022-11-21T00:16:15.148Z,6.30
2022-11-21T00:18:43.376Z,5.63
2022-11-21T00:21:14.151Z,5.68
2022-11-21T00:23:42.796Z,5.70
2022-11-21T00:26:12.075Z,6.18
2022-11-21T00:28:39.601Z,6.30
2022-11-21T00:31:06.926Z,5.78
2022-11-21T00:33:38.493Z,5.90
2022-11-21T00:36:08.159Z,5.60
2022-11-21T00:38:35.588Z,5.57
2022-11-21T00:41:03.070Z,6.38
2022-11-21T00:43:30.268Z,5.47
2022-11-21T00:46:00.596Z,5.60
2022-11-21T00:48:29.360Z,5.43
2022-11-21T00:50:56.855Z,6.43
2022-11-21T00:53:24.016Z,5.03
2022-11-21T00:55:51.083Z,6.05
2022-11-21T00:58:18.214Z,6.22
2022-11-21T01:00:45.422Z,4.47
2022-11-21T01:03:12.610Z,5.97
2022-11-21T01:05:39.731Z,6.72
2022-11-21T01:08:06.834Z,7.07
2022-11-21T01:10:35.446Z,7.43
2022-11-21T01:13:03.471Z,5.20
2022-11-21T01:15:30.630Z,6.68
2022-11-21T01:17:57.823Z,5.22
2022-11-21T01:20:25.428Z,5.85
2022-11-21T01:22:52.585Z,6.25
2022-11-21T01:25:19.861Z,6.93
2022-11-21T01:27:46.973Z,5.57
2022-11-21T01:30:14.649Z,6.20
2022-11-21T01:32:41.824Z,5.35
2022-11-21T01:35:09.210Z,7.43
2022-11-21T01:37:36.377Z,6.35
2022-11-21T01:40:04.073Z,7.93
2022-11-21T01:42:54.681Z,6.95
2022-11-21T01:46:07.302Z,6.10
2022-11-21T01:48:42.641Z,5.97
2022-11-21T01:51:27.941Z,6.35
2022-11-21T01:54:16.044Z,5.75
2022-11-21T01:57:14.088Z,5.75
2022-11-21T01:59:48.665Z,5.15
2022-11-21T02:02:19.353Z,6.25
2022-11-21T02:04:47.992Z,6.50
2022-11-21T02:07:17.465Z,6.00
2022-11-21T02:09:49.138Z,5.15
2022-11-21T02:12:29.475Z,5.97
2022-11-21T02:14:58.062Z,6.60
2022-11-21T02:17:31.197Z,5.70
2022-11-21T02:20:01.217Z,7.00
2022-11-21T02:23:10.964Z,5.60
2022-11-21T02:25:41.767Z,4.85
2022-11-21T02:28:16.336Z,7.00
2022-11-21T02:30:43.659Z,6.88
2022-11-21T02:33:12.399Z,6.82
2022-11-21T02:35:40.733Z,6.13
2022-11-21T02:38:22.026Z,5.20
2022-11-21T02:41:11.623Z,6.90
2022-11-21T02:43:52.316Z,8.00
2022-11-21T02:46:19.433Z,8.20
2022-11-21T02:48:46.804Z,7.65
2022-11-21T02:51:14.044Z,6.47
2022-11-21T02:53:41.305Z,6.88
2022-11-21T02:56:08.366Z,4.55
2022-11-21T02:58:35.773Z,5.30
2022-11-21T03:01:03.204Z,4.88
2022-11-21T03:03:30.326Z,4.03
2022-11-21T03:05:57.462Z,5.45
2022-11-21T03:08:24.609Z,5.53
2022-11-21T03:10:51.802Z,4.85
2022-11-21T03:13:19.001Z,5.13
2022-11-21T03:15:46.302Z,5.47
2022-11-21T03:18:13.438Z,6.25
2022-11-21T03:20:40.531Z,6.63
2022-11-21T03:23:07.655Z,7.20
2022-11-21T03:25:34.782Z,4.07
2022-11-21T03:28:01.952Z,3.33
2022-11-21T03:30:29.085Z,2.78
2022-11-21T03:32:57.273Z,3.13
2022-11-21T03:35:25.581Z,2.03
2022-11-21T03:37:52.785Z,1.33
2022-11-21T03:40:20.365Z,1.42
2022-11-21T03:42:47.466Z,2.00
2022-11-21T03:45:14.758Z,1.25
2022-11-21T03:47:42.021Z,2.47
2022-11-21T03:50:10.134Z,1.77
2022-11-21T03:52:37.248Z,1.42
2022-11-21T03:55:04.923Z,2.10
2022-11-21T03:57:32.022Z,2.83
2022-11-21T03:59:59.314Z,3.28
2022-11-21T04:02:26.449Z,2.65
2022-11-21T04:04:53.626Z,3.33
2022-11-21T04:07:20.754Z,3.17
2022-11-21T04:09:47.981Z,4.22
2022-11-21T04:12:15.122Z,4.28
2022-11-21T04:14:42.244Z,4.03
2022-11-21T04:17:09.431Z,4.00
2022-11-21T04:19:36.591Z,4.80
2022-11-21T04:22:03.881Z,3.15
2022-11-21T04:24:31.250Z,3.83
2022-11-21T04:26:58.408Z,3.65
2022-11-21T04:29:25.598Z,6.18
2022-11-21T04:31:52.655Z,4.63
2022-11-21T04:34:19.779Z,3.90
2022-11-21T04:36:46.845Z,3.97
2022-11-21T04:39:14.039Z,4.22
2022-11-21T04:41:41.145Z,3.55
2022-11-21T04:44:08.233Z,4.55
2022-11-21T04:46:35.317Z,4.10
2022-11-21T04:49:02.505Z,4.00
2022-11-21T04:51:29.617Z,2.78
2022-11-21T04:53:56.740Z,3.22
2022-11-21T04:56:23.848Z,4.60
2022-11-21T04:58:52.867Z,3.22
2022-11-21T05:01:20.147Z,3.95
2022-11-21T05:03:47.268Z,3.40
2022-11-21T05:06:14.468Z,4.05
2022-11-21T05:08:41.588Z,2.92
2022-11-21T05:11:27.429Z,3.50
2022-11-21T05:13:54.936Z,4.03
2022-11-21T05:16:21.982Z,2.50
2022-11-21T05:18:49.141Z,5.30
2022-11-21T05:21:16.253Z,3.05
2022-11-21T05:23:43.325Z,3.92
2022-11-21T05:26:10.550Z,3.90
2022-11-21T05:28:37.863Z,6.00
2022-11-21T05:31:04.987Z,3.75
2022-11-21T05:33:32.233Z,4.28
2022-11-21T05:35:59.308Z,3.25
2022-11-21T05:38:26.421Z,3.30
2022-11-21T05:40:53.517Z,2.75
2022-11-21T05:43:39.482Z,2.70
2022-11-21T05:46:06.594Z,2.72
2022-11-21T05:48:35.955Z,3.80
2022-11-21T05:51:04.196Z,3.95
2022-11-21T05:53:31.513Z,3.40
2022-11-21T05:56:08.176Z,4.35
2022-11-21T05:58:35.833Z,4.43
2022-11-21T06:01:04.280Z,7.68
2022-11-21T06:03:35.724Z,5.30
2022-11-21T06:06:12.674Z,8.98
2022-11-21T06:08:45.877Z,8.52
2022-11-21T06:11:16.797Z,9.18
2022-11-21T06:13:44.602Z,7.60
2022-11-21T06:16:15.027Z,9.32
2022-11-21T06:18:58.149Z,10.80
2022-11-21T06:21:28.562Z,18.67
2022-11-21T06:23:58.219Z,10.38
2022-11-21T06:26:27.005Z,12.38
2022-11-21T06:28:54.626Z,10.27
2022-11-21T06:31:25.350Z,12.13
2022-11-21T06:33:58.267Z,8.32
2022-11-21T06:36:26.335Z,10.77
2022-11-21T06:38:54.959Z,12.02
2022-11-21T06:41:25.564Z,10.85
2022-11-21T06:43:53.106Z,8.77
2022-11-21T06:46:20.299Z,8.40
2022-11-21T06:48:47.409Z,5.28
2022-11-21T06:51:22.553Z,6.90
2022-11-21T06:53:55.464Z,7.28
2022-11-21T06:56:25.190Z,4.20
2022-11-21T06:58:52.909Z,3.65
2022-11-21T07:01:20.159Z,2.63
2022-11-21T07:03:47.390Z,2.35
2022-11-21T07:06:14.555Z,5.93
2022-11-21T07:08:41.681Z,4.47
2022-11-21T07:11:29.053Z,1.90
2022-11-21T07:13:56.144Z,3.35
2022-11-21T07:16:25.442Z,3.03
2022-11-21T07:18:52.557Z,3.17
2022-11-21T07:21:19.670Z,3.70
2022-11-21T07:23:47.144Z,2.38
2022-11-21T07:26:14.540Z,3.90
2022-11-21T07:28:42.001Z,1.55
2022-11-21T07:31:13.717Z,2.60
2022-11-21T07:33:46.227Z,2.15
2022-11-21T07:36:14.020Z,1.77
2022-11-21T07:38:41.744Z,2.70
2022-11-21T07:41:09.864Z,2.40
2022-11-21T07:43:37.010Z,2.30
2022-11-21T07:46:04.206Z,2.60
2022-11-21T07:48:31.425Z,3.15
2022-11-21T07:50:58.662Z,2.38
2022-11-21T07:53:25.826Z,3.28
2022-11-21T07:55:52.979Z,2.42
2022-11-21T07:58:20.159Z,3.40
2022-11-21T08:00:47.251Z,2.53
2022-11-21T08:03:14.338Z,3.60
2022-11-21T08:05:43.657Z,3.20
2022-11-21T08:10:44.808Z,3.15
2022-11-21T08:13:13.100Z,2.25
2022-11-21T08:15:40.400Z,3.03
2022-11-21T08:18:18.485Z,2.75
2022-11-21T08:20:45.957Z,2.53
2022-11-21T08:23:13.273Z,2.55
2022-11-21T08:25:41.955Z,1.95
2022-11-21T08:28:10.777Z,2.00
2022-11-21T08:30:40.076Z,1.85
2022-11-21T08:33:07.315Z,2.35
2022-11-21T08:35:39.430Z,2.08
2022-11-21T08:38:06.688Z,2.83
2022-11-21T08:40:35.309Z,1.52
2022-11-21T08:43:07.467Z,2.28
2022-11-21T08:45:36.474Z,1.33
2022-11-21T08:48:08.223Z,1.10
2022-11-21T08:50:35.414Z,1.50
2022-11-21T08:53:02.822Z,1.38
2022-11-21T08:55:30.886Z,1.50
2022-11-21T08:57:58.586Z,0.82
2022-11-21T09:00:25.922Z,0.80
2022-11-21T09:02:53.071Z,0.68
2022-11-21T09:05:20.510Z,0.40
2022-11-21T09:07:47.919Z,0.77
2022-11-21T09:10:15.475Z,0.30
2022-11-21T09:12:43.019Z,0.70
2022-11-21T09:15:29.799Z,0.38
2022-11-21T09:18:03.957Z,0.55
2022-11-21T09:20:33.550Z,0.43
2022-11-21T09:23:19.022Z,0.55
2022-11-21T09:25:47.094Z,0.38
2022-11-21T09:28:14.852Z,0.52
2022-11-21T09:30:43.062Z,0.10
2022-11-21T09:33:13.826Z,0.38
2022-11-21T09:35:40.960Z,0.60
2022-11-21T09:38:08.468Z,0.47
2022-11-21T09:40:36.394Z,0.30
2022-11-21T09:43:35.717Z,0.20
2022-11-21T09:48:52.636Z,0.25
2022-11-21T09:51:21.887Z,0.22
2022-11-21T09:53:57.371Z,0.40
2022-11-21T09:56:25.968Z,0.45
2022-11-21T09:59:20.274Z,0.20
2022-11-21T10:01:47.782Z,0.70
2022-11-21T10:04:14.962Z,0.40
2022-11-21T10:07:28.536Z,0.47
2022-11-21T10:10:28.613Z,2.08
2022-11-21T10:13:35.616Z,1.05
2022-11-21T10:16:23.487Z,1.35
2022-11-21T10:19:32.553Z,1.98
2022-11-21T10:22:39.230Z,3.38
2022-11-21T10:25:17.085Z,1.55
2022-11-21T10:28:20.691Z,1.60
2022-11-21T10:30:51.097Z,3.83
2022-11-21T10:33:39.714Z,7.03
2022-11-21T10:36:36.118Z,4.13
2022-11-21T10:39:22.401Z,2.67
2022-11-21T10:42:02.460Z,2.88
2022-11-21T10:44:49.033Z,1.80
2022-11-21T10:47:27.236Z,2.88
2022-11-21T10:50:08.275Z,2.63
2022-11-21T10:52:56.263Z,1.15
2022-11-21T10:55:23.410Z,1.40
2022-11-21T10:57:53.664Z,1.77
2022-11-21T11:00:27.545Z,1.00
2022-11-21T11:03:05.663Z,1.80
2022-11-21T11:05:37.981Z,0.85
2022-11-21T11:08:14.254Z,1.13
2022-11-21T11:11:12.397Z,2.15
2022-11-21T11:14:17.097Z,7.28
2022-11-21T11:16:46.588Z,9.18
2022-11-21T11:19:13.554Z,4.38
2022-11-21T11:21:40.624Z,10.90
2022-11-21T11:24:10.721Z,3.45
2022-11-21T11:26:48.150Z,1.88
2022-11-21T11:29:50.940Z,2.95
2022-11-21T11:32:21.686Z,1.55
2022-11-21T11:35:00.656Z,1.20
2022-11-21T11:37:40.788Z,0.38
2022-11-21T11:40:36.425Z,0.35
2022-11-21T11:44:19.972Z,0.30
2022-11-21T11:47:32.034Z,1.30
2022-11-21T11:50:10.786Z,0.93
2022-11-21T11:52:54.706Z,1.08
2022-11-21T11:55:39.385Z,2.38
2022-11-21T11:58:27.055Z,1.35
2022-11-21T12:01:03.371Z,2.38
2022-11-21T12:03:44.986Z,6.20
2022-11-21T12:06:43.492Z,7.03
2022-11-21T12:09:34.541Z,4.40
2022-11-21T12:12:30.765Z,2.67
2022-11-21T12:15:48.516Z,1.67
2022-11-21T12:18:18.231Z,1.30
2022-11-21T12:21:08.518Z,2.05
2022-11-21T12:23:47.040Z,1.00
2022-11-21T12:26:20.299Z,0.70
2022-11-21T12:28:59.768Z,0.52
2022-11-21T12:31:41.607Z,0.40
2022-11-21T12:34:30.125Z,0.50
2022-11-21T12:37:29.631Z,0.25
2022-11-21T12:40:33.496Z,0.30
2022-11-21T12:43:45.264Z,0.20
2022-11-21T12:47:04.995Z,0.50
2022-11-21T12:50:26.833Z,0.73
2022-11-21T12:53:23.123Z,0.28
2022-11-21T12:56:03.418Z,3.95
2022-11-21T12:58:39.352Z,0.80
2022-11-21T13:01:21.469Z,0.47
2022-11-21T13:04:04.744Z,0.80
2022-11-21T13:06:38.357Z,0.35
2022-11-21T13:09:12.662Z,0.32
2022-11-21T13:12:03.284Z,0.13
2022-11-21T13:14:45.303Z,0.38
2022-11-21T13:17:25.177Z,0.30
2022-11-21T13:20:04.597Z,0.25
2022-11-21T13:25:39.801Z,0.82
2022-11-21T13:28:13.207Z,0.93
2022-11-21T13:31:02.001Z,0.50
2022-11-21T13:33:35.158Z,0.40
2022-11-21T13:36:07.286Z,1.05
2022-11-21T13:38:53.320Z,0.73
2022-11-21T13:42:36.132Z,1.33
2022-11-21T13:45:47.181Z,0.70
2022-11-21T13:48:36.594Z,1.20
2022-11-21T13:54:20.356Z,1.70
2022-11-21T13:57:19.255Z,1.85
2022-11-21T14:00:19.871Z,1.10
2022-11-21T14:03:18.240Z,1.25
2022-11-21T14:06:19.622Z,1.60
2022-11-21T14:09:17.901Z,1.83
2022-11-21T14:12:04.138Z,2.30
2022-11-21T14:14:49.685Z,2.53
2022-11-21T14:17:47.367Z,1.90
2022-11-21T14:20:21.000Z,3.17
2022-11-21T14:23:02.723Z,5.57
2022-11-21T14:25:39.608Z,4.75
2022-11-21T14:28:21.206Z,4.03
2022-11-21T14:30:55.166Z,3.83
2022-11-21T14:33:35.708Z,2.88
2022-11-21T14:36:27.687Z,1.65
2022-11-21T14:39:35.304Z,3.58
2022-11-21T14:41:56.015Z,2.20
2022-11-21T14:44:24.100Z,2.00
2022-11-21T14:47:19.787Z,1.85
2022-11-21T14:49:53.494Z,1.90
2022-11-21T14:52:33.416Z,1.75
2022-11-21T14:57:55.271Z,1.23
2022-11-21T15:03:23.125Z,2.28
2022-11-21T15:06:06.225Z,3.30
2022-11-21T15:11:45.523Z,2.00
2022-11-21T15:14:38.463Z,1.95
2022-11-21T15:17:12.124Z,1.83
2022-11-21T15:19:47.174Z,2.50
2022-11-21T15:22:34.624Z,2.63
2022-11-21T15:25:16.629Z,2.25
2022-11-21T15:28:11.729Z,2.15
2022-11-21T15:30:38.962Z,1.63
2022-11-21T15:33:19.682Z,1.95
2022-11-21T15:35:54.812Z,1.85
2022-11-21T15:38:47.953Z,1.52
2022-11-21T15:41:15.038Z,1.63
2022-11-21T15:43:50.047Z,1.23
2022-11-21T15:46:34.446Z,0.93
2022-11-21T15:49:31.567Z,2.05
2022-11-21T15:52:10.401Z,2.25
2022-11-21T15:54:37.717Z,1.40
2022-11-21T15:57:04.834Z,1.83
2022-11-21T15:59:32.382Z,1.38
2022-11-21T16:01:59.814Z,1.45
2022-11-21T16:04:27.216Z,1.58
2022-11-21T16:06:54.860Z,2.03
2022-11-21T16:09:22.166Z,2.97
2022-11-21T16:11:49.251Z,1.95
2022-11-21T16:14:17.764Z,1.88
2022-11-21T16:16:47.106Z,1.27
2022-11-21T16:19:15.324Z,2.03
2022-11-21T16:21:42.725Z,1.83
2022-11-21T16:24:10.049Z,1.02
2022-11-21T16:26:37.245Z,1.20
2022-11-21T16:29:05.087Z,3.83
2022-11-21T16:31:32.873Z,0.77
2022-11-21T16:34:00.141Z,1.10
2022-11-21T16:36:29.850Z,1.02
2022-11-21T16:39:01.895Z,1.02
2022-11-21T16:41:30.652Z,1.27
2022-11-21T16:43:58.052Z,0.77
2022-11-21T16:46:25.488Z,0.90
2022-11-21T16:49:01.992Z,0.98
2022-11-21T16:51:29.633Z,1.02
2022-11-21T16:53:57.527Z,0.88
2022-11-21T16:56:25.192Z,5.10
2022-11-21T16:58:52.689Z,2.35
2022-11-21T17:01:25.776Z,1.80
2022-11-21T17:03:53.552Z,1.30
2022-11-21T17:06:24.486Z,1.90
2022-11-21T17:08:51.629Z,1.38
2022-11-21T17:11:28.435Z,1.50
2022-11-21T17:14:01.241Z,1.33
2022-11-21T17:16:29.524Z,1.23
2022-11-21T17:18:59.744Z,1.92
2022-11-21T17:21:28.318Z,1.00
2022-11-21T17:23:55.660Z,1.47
2022-11-21T17:26:26.125Z,1.60
2022-11-21T17:29:02.815Z,1.10
2022-11-21T17:31:30.253Z,1.15
2022-11-21T17:34:00.079Z,1.33
2022-11-21T17:36:29.367Z,0.88
2022-11-21T17:38:56.689Z,1.38
2022-11-21T17:41:25.314Z,2.20
2022-11-21T17:43:57.278Z,3.08
2022-11-21T17:46:25.611Z,2.50
2022-11-21T17:48:57.693Z,3.55
2022-11-21T17:51:33.726Z,2.70
2022-11-21T17:54:01.623Z,5.03
2022-11-21T17:56:32.259Z,3.17
2022-11-21T17:59:00.039Z,6.35
2022-11-21T18:01:28.459Z,7.38
2022-11-21T18:03:59.120Z,4.47
2022-11-21T18:06:35.281Z,3.53
2022-11-21T18:09:04.190Z,4.25
2022-11-21T18:11:39.590Z,3.95
2022-11-21T18:14:10.531Z,6.32
2022-11-21T18:16:38.914Z,7.53
2022-11-21T18:19:06.675Z,6.47
2022-11-21T18:21:37.578Z,8.02
2022-11-21T18:24:05.344Z,7.22
2022-11-21T18:26:36.407Z,5.20
2022-11-21T18:29:34.616Z,5.68
2022-11-21T18:31:54.490Z,8.30
2022-11-21T18:34:21.613Z,7.53
2022-11-21T18:36:48.738Z,5.90
2022-11-21T18:39:16.005Z,5.68
2022-11-21T18:41:43.667Z,6.97
2022-11-21T18:44:14.620Z,7.00
2022-11-21T18:46:44.421Z,9.93
2022-11-21T18:49:11.520Z,9.23
2022-11-21T18:51:39.063Z,6.95
2022-11-21T18:54:08.999Z,7.63
2022-11-21T18:56:38.431Z,8.45
2022-11-21T19:01:35.605Z,7.90
2022-11-21T19:04:03.605Z,8.27
2022-11-21T19:06:31.758Z,12.98
2022-11-21T19:08:59.200Z,13.00
2022-11-21T19:11:29.135Z,14.50
2022-11-21T19:13:58.879Z,17.95
2022-11-21T19:16:30.379Z,17.88
2022-11-21T19:21:46.698Z,11.30
2022-11-21T19:24:15.647Z,11.30
2022-11-21T19:26:43.164Z,19.67
2022-11-21T19:29:11.227Z,19.13
2022-11-21T19:31:45.338Z,17.40
2022-11-21T19:34:14.762Z,13.32
2022-11-21T19:36:43.231Z,10.43
2022-11-21T19:39:11.682Z,13.05
2022-11-21T19:41:39.513Z,16.27
2022-11-21T19:44:06.848Z,11.23
2022-11-21T19:46:37.808Z,10.27
2022-11-21T19:49:07.142Z,11.13
2022-11-21T19:51:41.154Z,9.43
2022-11-21T19:54:12.327Z,9.90
2022-11-21T19:56:39.851Z,10.30
2022-11-21T19:59:07.199Z,9.95
2022-11-21T20:01:35.183Z,9.02
2022-11-21T20:04:04.621Z,8.80
2022-11-21T20:06:39.359Z,8.38
2022-11-21T20:09:13.023Z,8.57
2022-11-21T20:11:43.122Z,11.93
2022-11-21T20:14:17.778Z,10.30
2022-11-21T20:16:48.349Z,10.38
2022-11-21T20:19:19.029Z,8.43
2022-11-21T20:21:47.271Z,7.15
2022-11-21T20:24:14.738Z,7.05
2022-11-21T20:26:42.646Z,9.88
2022-11-21T20:29:15.385Z,6.85
2022-11-21T20:31:43.783Z,6.07
2022-11-21T20:37:00.172Z,6.45
2022-11-21T20:39:31.235Z,7.35
2022-11-21T20:41:59.272Z,6.30
2022-11-21T20:47:16.120Z,7.65
2022-11-21T20:49:43.332Z,6.88
2022-11-21T20:54:57.832Z,6.78
2022-11-21T20:57:26.928Z,7.18
2022-11-21T20:59:54.259Z,7.07
2022-11-21T21:02:21.509Z,7.95
2022-11-21T21:04:49.050Z,8.80
2022-11-21T21:07:16.407Z,9.40
2022-11-21T21:09:43.722Z,9.70
2022-11-21T21:12:11.163Z,7.57
2022-11-21T21:14:38.433Z,7.40
2022-11-21T21:17:05.770Z,7.40
2022-11-21T21:19:33.299Z,5.93
2022-11-21T21:22:00.641Z,5.90
2022-11-21T21:24:27.925Z,6.22
2022-11-21T21:26:55.131Z,5.93
2022-11-21T21:29:22.872Z,5.55
2022-11-21T21:31:52.110Z,5.65
2022-11-21T21:34:21.826Z,5.88
2022-11-21T21:36:50.365Z,5.85
2022-11-21T21:39:17.990Z,5.97
2022-11-21T21:41:45.682Z,7.22
2022-11-21T21:44:13.411Z,15.02
2022-11-21T21:46:40.718Z,12.27
2022-11-21T21:49:08.126Z,13.93
2022-11-21T21:51:36.615Z,11.43
2022-11-21T21:54:04.593Z,10.55
2022-11-21T21:56:33.087Z,11.80
2022-11-21T21:59:00.439Z,11.10
2022-11-21T22:01:31.181Z,11.63
2022-11-21T22:04:02.038Z,12.15
2022-11-21T22:06:31.732Z,11.43
2022-11-21T22:08:59.021Z,14.40
2022-11-21T22:11:30.247Z,14.40
2022-11-21T22:14:01.161Z,11.30
2022-11-21T22:16:29.519Z,9.82
2022-11-21T22:18:57.301Z,10.55
2022-11-21T22:21:33.711Z,9.73
2022-11-21T22:26:52.090Z,7.82
2022-11-21T22:29:19.284Z,8.75
2022-11-21T22:31:46.584Z,8.80
2022-11-21T22:34:13.946Z,8.02
2022-11-21T22:36:42.303Z,10.02
2022-11-21T22:39:09.519Z,11.07
2022-11-21T22:41:36.725Z,12.60
2022-11-21T22:44:04.115Z,11.05
2022-11-21T22:46:31.820Z,11.07
2022-11-21T22:48:59.394Z,13.05
2022-11-21T22:51:28.743Z,11.80
2022-11-21T22:53:56.346Z,9.52
2022-11-21T22:56:24.446Z,11.35
2022-11-21T22:58:51.663Z,11.13
2022-11-21T23:01:22.203Z,10.13
2022-11-21T23:03:50.271Z,9.77
2022-11-21T23:06:24.013Z,9.25
2022-11-21T23:08:54.188Z,7.32
2022-11-21T23:11:25.539Z,7.70
2022-11-21T23:13:53.533Z,7.28
2022-11-21T23:16:21.150Z,7.03
2022-11-21T23:18:50.747Z,6.20
2022-11-21T23:21:18.133Z,5.63
2022-11-21T23:23:45.243Z,6.65
2022-11-21T23:26:12.424Z,8.35
2022-11-21T23:28:39.671Z,6.38
2022-11-21T23:31:06.725Z,5.28
2022-11-21T23:33:33.987Z,7.07
2022-11-21T23:36:01.133Z,7.32
2022-11-21T23:38:28.229Z,9.05
2022-11-21T23:40:55.377Z,8.90
2022-11-21T23:43:22.553Z,9.13
2022-11-21T23:45:53.833Z,9.23
2022-11-21T23:48:23.531Z,7.18
2022-11-21T23:50:50.849Z,7.97
2022-11-21T23:53:19.491Z,9.57
2022-11-21T23:55:47.827Z,9.07
2022-11-21T23:58:15.714Z,8.50
